Flight Track Log - Related Links

Times and Time Zones

All times are in EDT time to prevent confusion due to time zone crossing. See the SWA1040 flight status page for this flight to view local times or setup timezone preferences in your user account.

Time Position Orientation Groundspeed Altitude Reporting Facility
EDT Latitude Longitude Course Direction KTS MPH feet Rate Location/Type
Sat 09:21:48 AM 28.4333 -81.3000 347° North 161 185 600  Level Orlando TRACON
Sat 09:23:52 AM 28.5431 -81.3281 347° North 232 267 4,800 2,543 Climbing Jacksonville Center
Sat 09:24:52 AM 28.6164 -81.3342 356° North 243 280 8,400 3,100 Climbing Jacksonville Center
Sat 09:25:52 AM 28.6958 -81.3447 353° North 265 305 11,000 2,650 Climbing Jacksonville Center
Sat 09:26:52 AM 28.7939 -81.3575 353° North 310 357 13,700 3,150 Climbing Jacksonville Center
Sat 09:27:52 AM 28.9025 -81.3675 355° North 345 397 17,300 3,250 Climbing Jacksonville Center
Sat 09:28:52 AM 29.0050 -81.3778 355° North 360 414 20,200 2,650 Climbing Jacksonville Center
Sat 09:29:52 AM 29.1136 -81.3906 354° North 374 430 22,600 2,200 Climbing Jacksonville Center
Sat 09:30:52 AM 29.2267 -81.4031 354° North 386 444 24,600 2,100 Climbing Jacksonville Center
Sat 09:31:52 AM 29.3456 -81.4156 355° North 412 474 26,800 2,050 Climbing Jacksonville Center
Sat 09:32:52 AM 29.4669 -81.4281 355° North 426 490 28,700 1,950 Climbing Jacksonville Center
Sat 09:33:52 AM 29.5881 -81.4406 355° North 431 496 30,700 2,300 Climbing Jacksonville Center
Sat 09:34:52 AM 29.7072 -81.4483 357° North 431 496 33,300 2,150 Climbing Jacksonville Center
Sat 09:35:52 AM 29.8239 -81.4347 North 412 474 35,000 1,600 Climbing Jacksonville Center
Sat 09:36:52 AM 29.9361 -81.3778 24° Northeast 412 474 36,500 1,400 Climbing Jacksonville Center
Sat 09:37:52 AM 30.0397 -81.3258 23° Northeast 427 491 37,800 1,200 Climbing Jacksonville Center
Sat 09:38:52 AM 30.1478 -81.2711 24° Northeast 427 491 38,900 600 Climbing Jacksonville Center
Sat 09:39:52 AM 30.2617 -81.2139 23° Northeast 432 497 39,000 50 Climbing Jacksonville Center
Sat 09:40:52 AM 30.3736 -81.1589 23° Northeast 432 497 39,000  Level Jacksonville Center
Sat 09:41:52 AM 30.4858 -81.1039 23° Northeast 432 497 39,000  Level Jacksonville Center
Sat 09:42:52 AM 30.5956 -81.0511 22° Northeast 432 497 39,000  Level Jacksonville Center
Sat 09:43:52 AM 30.7075 -80.9936 24° Northeast 432 497 39,000  Level Jacksonville Center
Sat 09:44:52 AM 30.8153 -80.9406 23° Northeast 427 491 39,000  Level Jacksonville Center
Sat 09:45:52 AM 30.9253 -80.8897 22° Northeast 427 491 39,000  Level Jacksonville Center
Sat 09:46:52 AM 31.0350 -80.8317 24° Northeast 427 491 39,000  Level Jacksonville Center
Sat 09:47:52 AM 31.1425 -80.7808 22° Northeast 422 486 39,000  Level Jacksonville Center
Sat 09:48:52 AM 31.2503 -80.7250 24° Northeast 416 479 39,000  Level Jacksonville Center
Sat 09:49:52 AM 31.3600 -80.6689 24° Northeast 416 479 39,000  Level Jacksonville Center
Sat 09:50:52 AM 31.4739 -80.6175 21° North 416 479 39,000  Level Jacksonville Center
Sat 09:51:52 AM 31.5814 -80.5589 25° Northeast 421 484 39,000  Level Jacksonville Center
Sat 09:52:52 AM 31.7056 -80.4969 23° Northeast 427 491 39,000  Level Jacksonville Center
Sat 09:53:52 AM 31.7944 -80.4508 24° Northeast 427 491 39,000  Level Jacksonville Center
Sat 09:54:52 AM 31.9142 -80.3889 24° Northeast 427 491 39,000  Level Jacksonville Center
Sat 09:55:52 AM 32.0258 -80.3319 23° Northeast 433 498 39,000  Level Jacksonville Center
Sat 09:56:52 AM 32.1375 -80.2747 23° Northeast 433 498 39,000  Level Jacksonville Center
Sat 09:57:52 AM 32.2489 -80.2175 23° Northeast 433 498 39,000  Level Jacksonville Center
Sat 09:58:52 AM 32.3606 -80.1603 23° Northeast 433 498 39,000  Level Jacksonville Center
Sat 09:59:52 AM 32.4739 -80.1025 23° Northeast 433 498 39,000  Level Jacksonville Center
Sat 10:00:52 AM 32.5833 -80.0425 25° Northeast 433 498 39,000  Level Jacksonville Center
Sat 10:01:52 AM 32.6947 -79.9872 23° Northeast 433 498 39,000  Level Jacksonville Center
Sat 10:02:52 AM 32.8183 -79.9214 24° Northeast 433 498 39,000  Level Jacksonville Center
Sat 10:03:52 AM 32.9278 -79.8608 25° Northeast 433 498 39,000  Level Jacksonville Center
Sat 10:04:52 AM 33.0411 -79.8025 23° Northeast 433 498 39,000  Level Jacksonville Center
Sat 10:05:52 AM 33.1544 -79.7417 24° Northeast 433 498 39,000  Level Jacksonville Center
Sat 10:06:52 AM 33.2656 -79.6856 23° Northeast 433 498 39,000  Level Jacksonville Center
Sat 10:07:52 AM 33.3767 -79.6267 24° Northeast 433 498 39,000  Level Jacksonville Center
Sat 10:08:52 AM 33.4881 -79.5678 24° Northeast 433 498 39,000  Level Jacksonville Center
Sat 10:09:52 AM 33.5992 -79.5114 23° Northeast 433 498 39,000  Level Jacksonville Center
Sat 10:10:52 AM 33.7081 -79.4522 24° Northeast 433 498 39,000  Level Jacksonville Center
Sat 10:11:52 AM 33.7967 -79.4039 24° Northeast 416 479 39,000  Level Jacksonville Center
Sat 10:14:17 AM 34.0656 -79.2619 24° Northeast 406 467 39,000  Level Washington Center
Sat 10:15:15 AM 34.1717 -79.1964 27° Northeast 406 467 39,000  Level Washington Center
Sat 10:16:16 AM 34.2656 -79.1275 31° Northeast 425 489 39,000  Level Washington Center
Sat 10:17:17 AM 34.3697 -79.0617 28° Northeast 430 495 39,000  Level Washington Center
Sat 10:18:17 AM 34.4825 -78.9858 29° Northeast 425 489 39,000  Level Washington Center
Sat 10:19:15 AM 34.5764 -78.9164 31° Northeast 431 496 39,000  Level Washington Center
Sat 10:20:16 AM 34.6783 -78.8450 30° Northeast 431 496 39,000  Level Washington Center
Sat 10:21:17 AM 34.7847 -78.7708 30° Northeast 431 496 39,000  Level Washington Center
Sat 10:22:15 AM 34.8867 -78.6989 30° Northeast 431 496 39,000  Level Washington Center
Sat 10:23:16 AM 34.9908 -78.6267 30° Northeast 431 496 39,000  Level Washington Center
Sat 10:24:17 AM 35.0908 -78.5542 31° Northeast 431 496 39,000  Level Washington Center
Sat 10:25:15 AM 35.1969 -78.4819 29° Northeast 431 496 39,000  Level Washington Center
Sat 10:26:17 AM 35.2967 -78.4067 32° Northeast 431 496 39,000  Level Washington Center
Sat 10:27:15 AM 35.4006 -78.3339 30° Northeast 431 496 39,000  Level Washington Center
Sat 10:28:15 AM 35.5067 -78.2608 29° Northeast 431 496 39,000  Level Washington Center
Sat 10:29:16 AM 35.6083 -78.1903 29° Northeast 431 496 39,000  Level Washington Center
Sat 10:30:15 AM 35.7122 -78.1169 30° Northeast 426 490 39,000  Level Washington Center
Sat 10:31:15 AM 35.8158 -78.0433 30° Northeast 426 490 39,000  Level Washington Center
Sat 10:32:16 AM 35.9217 -77.9672 30° Northeast 426 490 39,000  Level Washington Center
Sat 10:33:17 AM 36.0233 -77.8956 30° Northeast 426 490 39,000  Level Washington Center
Sat 10:34:17 AM 36.1292 -77.8217 29° Northeast 426 490 39,000  Level Washington Center
Sat 10:35:15 AM 36.2286 -77.7472 31° Northeast 426 490 39,000  Level Washington Center
Sat 10:36:17 AM 36.3319 -77.6728 30° Northeast 426 490 39,000  Level Washington Center
Sat 10:37:17 AM 36.4400 -77.5878 32° Northeast 426 490 39,000  Level Washington Center
Sat 10:38:15 AM 36.5433 -77.5156 29° Northeast 414 476 39,000  Level Washington Center
Sat 10:39:16 AM 36.6447 -77.4403 31° Northeast 414 476 39,000  Level Washington Center
Sat 10:40:17 AM 36.7458 -77.3650 31° Northeast 419 482 39,000  Level Washington Center
Sat 10:41:15 AM 36.8450 -77.2892 31° Northeast 419 482 39,000  Level Washington Center
Sat 10:42:15 AM 36.9419 -77.2186 30° Northeast 429 494 39,000  Level Washington Center
Sat 10:43:16 AM 37.0431 -77.1453 30° Northeast 423 487 39,000  Level Washington Center
Sat 10:44:16 AM 37.1442 -77.0692 31° Northeast 423 487 39,000  Level Washington Center
Sat 10:45:17 AM 37.2558 -76.9853 31° Northeast 423 487 39,000  Level Washington Center
Sat 10:46:17 AM 37.3589 -76.9086 31° Northeast 423 487 39,000  Level Washington Center
Sat 10:47:15 AM 37.4619 -76.8267 32° Northeast 430 495 39,000  Level Washington Center
Sat 10:48:15 AM 37.5650 -76.7497 31° Northeast 430 495 39,000  Level Washington Center
Sat 10:49:16 AM 37.6656 -76.6753 30° Northeast 425 489 39,000  Level Washington Center
Sat 10:50:17 AM 37.7686 -76.5981 31° Northeast 425 489 39,000  Level Washington Center
Sat 10:51:17 AM 37.8714 -76.5178 32° Northeast 425 489 39,000  Level Washington Center
Sat 10:52:17 AM 37.9719 -76.4425 31° Northeast 425 489 39,000  Level Washington Center
Sat 10:53:15 AM 38.0789 -76.3619 31° Northeast 425 489 39,000  Level Washington Center
Sat 10:54:16 AM 38.1794 -76.2811 32° Northeast 430 495 39,000  Level Washington Center
Sat 10:55:17 AM 38.2822 -76.2028 31° Northeast 424 488 39,000  Level Washington Center
Sat 10:56:15 AM 38.3825 -76.1214 32° Northeast 424 488 39,000  Level Washington Center
Sat 10:57:15 AM 38.4872 -76.0425 31° Northeast 429 494 39,000  Level Washington Center
Sat 10:58:16 AM 38.5833 -75.9742 29° Northeast 429 494 39,000  Level Washington Center
Sat 10:59:17 AM 38.6878 -75.8922 31° Northeast 429 494 39,000  Level Washington Center
Sat 11:00:15 AM 38.7881 -75.8075 33° Northeast 429 494 39,000  Level Washington Center
Sat 11:01:15 AM 38.8925 -75.7278 31° Northeast 429 494 39,000  Level Washington Center
Sat 11:02:16 AM 38.9986 -75.6478 30° Northeast 429 494 39,000  Level Washington Center
Sat 11:03:16 AM 39.1008 -75.5647 32° Northeast 429 494 39,000  Level Washington Center
Sat 11:04:17 AM 39.2050 -75.4792 32° Northeast 435 501 39,000  Level Washington Center
Sat 11:05:15 AM 39.3069 -75.3958 32° Northeast 435 501 39,000  Level Washington Center
Sat 11:06:15 AM 39.4153 -75.3122 31° Northeast 435 501 39,000  Level Washington Center
Sat 11:07:15 AM 39.5172 -75.2256 33° Northeast 435 501 39,000  Level Washington Center
Sat 11:09:05 AM 39.7100 -75.0722 31° Northeast 446 513 39,000  Level New York Center
Sat 11:10:06 AM 39.8153 -74.9842 33° Northeast 446 513 39,000  Level New York Center
Sat 11:11:06 AM 39.9142 -74.8981 34° Northeast 446 513 39,000  Level New York Center
Sat 11:12:07 AM 40.0075 -74.7897 42° Northeast 446 513 39,000  Level New York Center
Sat 11:13:06 AM 40.1117 -74.6711 41° Northeast 441 507 39,000  Level New York Center
Sat 11:14:06 AM 40.1942 -74.5725 42° Northeast 441 507 39,000  Level New York Center
Sat 11:15:06 AM 40.3000 -74.4475 42° Northeast 446 513 39,000 -1,169 Level New York Center
Sat 11:16:04 AM 40.3911 -74.3381 42° Northeast 451 519 36,700 -2,492 Descending New York Center
Sat 11:17:04 AM 40.4861 -74.2256 42° Northeast 451 519 34,100 -2,331 Descending New York Center
Sat 11:18:05 AM 40.5767 -74.1208 41° Northeast 446 513 32,000 -2,036 Descending New York Center
Sat 11:19:52 AM 40.7294 -73.9381 42° Northeast 421 484 28,400 -2,012 Descending Boston Center
Sat 11:20:52 AM 40.8100 -73.8414 42° Northeast 401 461 26,400 -1,950 Descending Boston Center
Sat 11:21:52 AM 40.8881 -73.7469 42° Northeast 388 447 24,500 -1,250 Descending Boston Center
Sat 11:22:52 AM 40.9581 -73.6547 45° Northeast 370 426 23,900 -750 Descending Boston Center
Sat 11:23:52 AM 41.0544 -73.6044 21° North 359 413 23,000 -700 Descending Boston Center
Sat 11:24:52 AM 41.1486 -73.5592 20° North 352 405 22,500 -750 Descending Boston Center
Sat 11:25:52 AM 41.2406 -73.5167 19° North 352 405 21,500 -1,000 Descending Boston Center
Sat 11:26:52 AM 41.3328 -73.4850 14° North 347 399 20,500 -1,000 Descending Boston Center
Sat 11:27:52 AM 41.4286 -73.4894 358° North 337 388 19,500 -1,000 Descending Boston Center
Sat 11:28:52 AM 41.5181 -73.4964 357° North 327 376 18,500 -750 Descending Boston Center
Sat 11:29:52 AM 41.6014 -73.4978 359° North 332 382 18,000 -750 Descending Boston Center
Sat 11:30:52 AM 41.6994 -73.5022 358° North 321 369 17,000 -650 Descending Boston Center
Sat 11:31:52 AM 41.7783 -73.5092 356° North 316 364 16,700 -700 Descending Boston Center
Sat 11:32:52 AM 41.8742 -73.5136 358° North 310 357 15,600 -1,250 Descending Boston Center
Sat 11:33:52 AM 41.9514 -73.5175 358° North 310 357 14,200 -1,700 Descending Boston Center
Sat 11:34:52 AM 42.0431 -73.5219 358° North 310 357 12,200 -1,600 Descending Boston Center
Sat 11:35:52 AM 42.1181 -73.5344 353° North 305 351 11,000 -600 Descending Boston Center
Sat 11:36:52 AM 42.1864 -73.5692 339° North 284 327 11,000 -814 Level Boston Center
Sat 11:37:50 AM 42.2631 -73.6072 340° North 268 308 9,400 -1,450 Descending Boston Center
Sat 11:38:52 AM 42.3336 -73.6422 340° North 266 306 8,100 -1,328 Descending Boston Center
Sat 11:39:52 AM 42.4019 -73.6744 341° North 260 299 6,700 -1,550 Descending Boston Center
Sat 11:40:52 AM 42.4600 -73.7036 340° North 255 293 5,000 -1,550 Descending Boston Center
Sat 11:41:52 AM 42.5347 -73.7419 339° North 250 288 3,600 -950 Descending Boston Center
Sat 11:42:52 AM 42.5886 -73.7656 342° North 237 273 3,100 -450 Descending Boston Center
Sat 11:43:52 AM 42.6464 -73.8033 334° Northwest 232 267 2,700 -815 Descending Boston Center
Sat 11:44:13 AM 42.6611 -73.8036 359° North 165 190 2,000 20,300 Descending Boston Center
Sat 11:44:52 AM 42.7044 -73.8386 329° Northwest 232 267 23,000 -909 Climbing Boston Center
Sat 11:45:19 AM 42.7028 -73.8075 94° East 130 150 1,000 -23,069 Descending Boston Center
Sat 11:45:50 AM 42.7236 -73.8081 359° North 130 150 700 14,194 Descending Boston Center
Sat 11:46:52 AM 42.8181 -73.9119 321° Northwest 232 267 23,000 10,967 Climbing Boston Center
Sat 11:47:52 AM 42.8511 -73.9356 332° Northwest 232 267 23,000  Level Boston Center
Sat 11:48:52 AM 42.8511 -73.9356 71° East 232 267 23,000  Level Boston Center

Login

Don't have an account? Register now (free) for customized features, flight alerts, and more!